sensor_id;sensor_type;location;lat;lon;timestamp;temperature;humidity
22071;DHT22;11200;51.488;6.668;2022-09-12T00:02:16;14.30;99.90
22071;DHT22;11200;51.488;6.668;2022-09-12T00:04:41;14.30;99.90
22071;DHT22;11200;51.488;6.668;2022-09-12T00:07:07;14.30;99.90
22071;DHT22;11200;51.488;6.668;2022-09-12T00:09:33;14.30;99.90
22071;DHT22;11200;51.488;6.668;2022-09-12T00:11:58;14.20;99.90
22071;DHT22;11200;51.488;6.668;2022-09-12T00:14:24;14.30;99.90
22071;DHT22;11200;51.488;6.668;2022-09-12T00:16:49;14.60;99.90
22071;DHT22;11200;51.488;6.668;2022-09-12T00:19:15;14.20;99.90
22071;DHT22;11200;51.488;6.668;2022-09-12T00:21:41;14.20;99.90
22071;DHT22;11200;51.488;6.668;2022-09-12T00:24:07;14.20;99.90
22071;DHT22;11200;51.488;6.668;2022-09-12T00:26:33;14.10;99.90
22071;DHT22;11200;51.488;6.668;2022-09-12T00:28:59;14.20;99.90
22071;DHT22;11200;51.488;6.668;2022-09-12T00:31:25;14.10;99.90
22071;DHT22;11200;51.488;6.668;2022-09-12T00:33:54;14.20;99.90
22071;DHT22;11200;51.488;6.668;2022-09-12T00:36:22;14.10;99.90
22071;DHT22;11200;51.488;6.668;2022-09-12T00:38:49;14.30;99.90
22071;DHT22;11200;51.488;6.668;2022-09-12T00:41:22;14.00;99.90
22071;DHT22;11200;51.488;6.668;2022-09-12T00:43:53;14.00;99.90
22071;DHT22;11200;51.488;6.668;2022-09-12T00:49:12;14.00;99.90
22071;DHT22;11200;51.488;6.668;2022-09-12T00:51:42;13.90;99.90
22071;DHT22;11200;51.488;6.668;2022-09-12T00:54:18;13.90;99.90
22071;DHT22;11200;51.488;6.668;2022-09-12T00:56:46;14.00;99.90
22071;DHT22;11200;51.488;6.668;2022-09-12T00:59:17;14.40;99.90
22071;DHT22;11200;51.488;6.668;2022-09-12T01:01:44;13.90;99.90
22071;DHT22;11200;51.488;6.668;2022-09-12T01:04:11;14.10;99.90
22071;DHT22;11200;51.488;6.668;2022-09-12T01:06:42;14.10;99.90
22071;DHT22;11200;51.488;6.668;2022-09-12T01:09:12;13.90;99.90
22071;DHT22;11200;51.488;6.668;2022-09-12T01:11:40;13.60;99.90
22071;DHT22;11200;51.488;6.668;2022-09-12T01:14:07;13.80;99.90
22071;DHT22;11200;51.488;6.668;2022-09-12T01:16:37;13.70;99.90
22071;DHT22;11200;51.488;6.668;2022-09-12T01:24:39;13.40;99.90
22071;DHT22;11200;51.488;6.668;2022-09-12T01:27:38;13.70;99.90
22071;DHT22;11200;51.488;6.668;2022-09-12T01:36:05;13.70;99.90
22071;DHT22;11200;51.488;6.668;2022-09-12T01:38:38;13.60;99.90
22071;DHT22;11200;51.488;6.668;2022-09-12T01:41:39;12.90;99.90
22071;DHT22;11200;51.488;6.668;2022-09-12T01:44:22;13.60;99.90
22071;DHT22;11200;51.488;6.668;2022-09-12T01:47:04;13.60;99.90
22071;DHT22;11200;51.488;6.668;2022-09-12T01:49:46;13.50;99.90
22071;DHT22;11200;51.488;6.668;2022-09-12T01:54:59;13.50;99.90
22071;DHT22;11200;51.488;6.668;2022-09-12T01:57:34;13.50;99.90
22071;DHT22;11200;51.488;6.668;2022-09-12T02:00:06;13.60;99.90
22071;DHT22;11200;51.488;6.668;2022-09-12T02:02:39;13.50;99.90
22071;DHT22;11200;51.488;6.668;2022-09-12T02:05:33;13.40;99.90
22071;DHT22;11200;51.488;6.668;2022-09-12T02:10:36;13.40;99.90
22071;DHT22;11200;51.488;6.668;2022-09-12T02:13:16;13.40;99.90
22071;DHT22;11200;51.488;6.668;2022-09-12T02:15:47;13.40;99.90
22071;DHT22;11200;51.488;6.668;2022-09-12T02:18:15;13.40;99.90
22071;DHT22;11200;51.488;6.668;2022-09-12T02:20:44;13.40;99.90
22071;DHT22;11200;51.488;6.668;2022-09-12T02:23:30;13.30;99.90
22071;DHT22;11200;51.488;6.668;2022-09-12T02:26:02;13.30;99.90
22071;DHT22;11200;51.488;6.668;2022-09-12T02:28:30;13.30;99.90
22071;DHT22;11200;51.488;6.668;2022-09-12T02:31:19;13.30;99.90
22071;DHT22;11200;51.488;6.668;2022-09-12T02:36:48;13.20;99.90
22071;DHT22;11200;51.488;6.668;2022-09-12T02:39:16;13.20;99.90
22071;DHT22;11200;51.488;6.668;2022-09-12T02:41:57;13.00;99.90
22071;DHT22;11200;51.488;6.668;2022-09-12T02:44:24;13.50;99.90
22071;DHT22;11200;51.488;6.668;2022-09-12T02:47:13;13.20;99.90
22071;DHT22;11200;51.488;6.668;2022-09-12T02:49:40;13.30;99.90
22071;DHT22;11200;51.488;6.668;2022-09-12T02:52:05;13.10;99.90
22071;DHT22;11200;51.488;6.668;2022-09-12T02:54:31;13.60;99.90
22071;DHT22;11200;51.488;6.668;2022-09-12T02:56:57;13.10;99.90
22071;DHT22;11200;51.488;6.668;2022-09-12T02:59:23;13.10;99.90
22071;DHT22;11200;51.488;6.668;2022-09-12T03:24:30;13.00;99.90
22071;DHT22;11200;51.488;6.668;2022-09-12T03:27:29;13.00;99.90
22071;DHT22;11200;51.488;6.668;2022-09-12T03:29:56;13.00;99.90
22071;DHT22;11200;51.488;6.668;2022-09-12T03:32:45;13.00;99.90
22071;DHT22;11200;51.488;6.668;2022-09-12T03:35:12;13.20;99.90
22071;DHT22;11200;51.488;6.668;2022-09-12T03:37:39;13.50;99.90
22071;DHT22;11200;51.488;6.668;2022-09-12T03:40:06;13.10;99.90
22071;DHT22;11200;51.488;6.668;2022-09-12T03:42:32;13.00;99.90
22071;DHT22;11200;51.488;6.668;2022-09-12T03:44:57;13.00;99.90
22071;DHT22;11200;51.488;6.668;2022-09-12T03:47:23;13.00;99.90
22071;DHT22;11200;51.488;6.668;2022-09-12T03:49:49;13.00;99.90
22071;DHT22;11200;51.488;6.668;2022-09-12T03:52:14;13.00;99.90
22071;DHT22;11200;51.488;6.668;2022-09-12T03:54:40;12.90;99.90
22071;DHT22;11200;51.488;6.668;2022-09-12T03:57:05;12.90;99.90
22071;DHT22;11200;51.488;6.668;2022-09-12T03:59:31;12.90;99.90
22071;DHT22;11200;51.488;6.668;2022-09-12T04:01:57;12.90;99.90
22071;DHT22;11200;51.488;6.668;2022-09-12T04:04:23;13.00;99.90
22071;DHT22;11200;51.488;6.668;2022-09-12T04:06:48;12.90;99.90
22071;DHT22;11200;51.488;6.668;2022-09-12T04:09:14;12.90;99.90
22071;DHT22;11200;51.488;6.668;2022-09-12T04:11:45;12.80;99.90
22071;DHT22;11200;51.488;6.668;2022-09-12T04:14:11;12.90;99.90
22071;DHT22;11200;51.488;6.668;2022-09-12T04:16:37;13.10;99.90
22071;DHT22;11200;51.488;6.668;2022-09-12T04:19:04;12.90;99.90
22071;DHT22;11200;51.488;6.668;2022-09-12T04:21:32;12.90;99.90
22071;DHT22;11200;51.488;6.668;2022-09-12T04:24:06;12.90;99.90
22071;DHT22;11200;51.488;6.668;2022-09-12T04:26:32;13.10;99.90
22071;DHT22;11200;51.488;6.668;2022-09-12T04:28:57;12.80;99.90
22071;DHT22;11200;51.488;6.668;2022-09-12T04:31:27;13.70;99.90
22071;DHT22;11200;51.488;6.668;2022-09-12T04:33:57;13.70;99.90
22071;DHT22;11200;51.488;6.668;2022-09-12T04:36:23;12.90;99.90
22071;DHT22;11200;51.488;6.668;2022-09-12T04:38:49;13.20;99.90
22071;DHT22;11200;51.488;6.668;2022-09-12T04:41:24;12.90;99.90
22071;DHT22;11200;51.488;6.668;2022-09-12T04:43:52;12.80;99.90
22071;DHT22;11200;51.488;6.668;2022-09-12T04:46:19;12.80;99.90
22071;DHT22;11200;51.488;6.668;2022-09-12T04:48:45;12.80;99.90
22071;DHT22;11200;51.488;6.668;2022-09-12T04:51:16;12.90;99.90
22071;DHT22;11200;51.488;6.668;2022-09-12T04:53:46;13.50;99.90
22071;DHT22;11200;51.488;6.668;2022-09-12T04:56:12;12.60;99.90
22071;DHT22;11200;51.488;6.668;2022-09-12T04:58:37;12.60;99.90
22071;DHT22;11200;51.488;6.668;2022-09-12T05:03:30;12.90;99.90
22071;DHT22;11200;51.488;6.668;2022-09-12T05:05:56;13.10;99.90
22071;DHT22;11200;51.488;6.668;2022-09-12T05:08:22;12.60;99.90
22071;DHT22;11200;51.488;6.668;2022-09-12T05:10:47;12.90;99.90
22071;DHT22;11200;51.488;6.668;2022-09-12T05:13:13;13.30;99.90
22071;DHT22;11200;51.488;6.668;2022-09-12T05:15:38;12.90;99.90
22071;DHT22;11200;51.488;6.668;2022-09-12T05:18:04;12.90;99.90
22071;DHT22;11200;51.488;6.668;2022-09-12T05:20:32;12.90;99.90
22071;DHT22;11200;51.488;6.668;2022-09-12T05:22:57;12.80;99.90
22071;DHT22;11200;51.488;6.668;2022-09-12T05:25:24;13.40;99.90
22071;DHT22;11200;51.488;6.668;2022-09-12T05:27:52;12.90;99.90
22071;DHT22;11200;51.488;6.668;2022-09-12T05:30:17;12.90;99.90
22071;DHT22;11200;51.488;6.668;2022-09-12T05:32:43;12.70;99.90
22071;DHT22;11200;51.488;6.668;2022-09-12T05:35:09;12.90;99.90
22071;DHT22;11200;51.488;6.668;2022-09-12T05:37:35;13.30;99.90
22071;DHT22;11200;51.488;6.668;2022-09-12T05:40:01;13.50;99.90
22071;DHT22;11200;51.488;6.668;2022-09-12T05:42:31;13.00;99.90
22071;DHT22;11200;51.488;6.668;2022-09-12T05:44:57;13.10;99.90
22071;DHT22;11200;51.488;6.668;2022-09-12T05:47:22;13.60;99.90
22071;DHT22;11200;51.488;6.668;2022-09-12T05:49:48;13.10;99.90
22071;DHT22;11200;51.488;6.668;2022-09-12T05:52:16;13.10;99.90
22071;DHT22;11200;51.488;6.668;2022-09-12T05:54:42;13.20;99.90
22071;DHT22;11200;51.488;6.668;2022-09-12T05:57:08;13.40;99.90
22071;DHT22;11200;51.488;6.668;2022-09-12T05:59:33;13.20;99.90
22071;DHT22;11200;51.488;6.668;2022-09-12T06:01:59;13.30;99.90
22071;DHT22;11200;51.488;6.668;2022-09-12T06:04:25;13.90;99.90
22071;DHT22;11200;51.488;6.668;2022-09-12T06:06:51;13.40;99.90
22071;DHT22;11200;51.488;6.668;2022-09-12T06:09:17;13.60;99.90
22071;DHT22;11200;51.488;6.668;2022-09-12T06:11:44;13.50;99.90
22071;DHT22;11200;51.488;6.668;2022-09-12T06:14:14;13.70;99.90
22071;DHT22;11200;51.488;6.668;2022-09-12T06:16:40;13.50;99.90
22071;DHT22;11200;51.488;6.668;2022-09-12T06:19:21;13.60;99.90
22071;DHT22;11200;51.488;6.668;2022-09-12T06:21:48;13.60;99.90
22071;DHT22;11200;51.488;6.668;2022-09-12T06:24:14;13.60;99.90
22071;DHT22;11200;51.488;6.668;2022-09-12T06:26:43;13.70;99.90
22071;DHT22;11200;51.488;6.668;2022-09-12T06:29:13;13.70;99.90
22071;DHT22;11200;51.488;6.668;2022-09-12T06:31:40;13.90;99.90
22071;DHT22;11200;51.488;6.668;2022-09-12T06:34:08;13.80;99.90
22071;DHT22;11200;51.488;6.668;2022-09-12T06:36:40;13.90;99.90
22071;DHT22;11200;51.488;6.668;2022-09-12T06:39:09;13.90;99.90
22071;DHT22;11200;51.488;6.668;2022-09-12T06:41:35;14.00;99.90
22071;DHT22;11200;51.488;6.668;2022-09-12T06:44:01;14.20;99.90
22071;DHT22;11200;51.488;6.668;2022-09-12T06:46:28;14.00;99.90
22071;DHT22;11200;51.488;6.668;2022-09-12T06:48:58;14.10;99.90
22071;DHT22;11200;51.488;6.668;2022-09-12T06:51:26;14.20;99.90
22071;DHT22;11200;51.488;6.668;2022-09-12T06:53:54;14.20;99.90
22071;DHT22;11200;51.488;6.668;2022-09-12T06:56:22;14.70;99.90
22071;DHT22;11200;51.488;6.668;2022-09-12T06:58:49;14.90;99.90
22071;DHT22;11200;51.488;6.668;2022-09-12T07:01:20;14.50;99.90
22071;DHT22;11200;51.488;6.668;2022-09-12T07:03:48;14.40;99.90
22071;DHT22;11200;51.488;6.668;2022-09-12T07:06:17;14.50;99.90
22071;DHT22;11200;51.488;6.668;2022-09-12T07:08:43;14.60;99.90
22071;DHT22;11200;51.488;6.668;2022-09-12T07:11:18;14.60;99.90
22071;DHT22;11200;51.488;6.668;2022-09-12T07:13:47;14.70;99.90
22071;DHT22;11200;51.488;6.668;2022-09-12T07:16:13;14.90;99.90
22071;DHT22;11200;51.488;6.668;2022-09-12T07:18:39;15.20;99.90
22071;DHT22;11200;51.488;6.668;2022-09-12T07:21:09;14.80;99.90
22071;DHT22;11200;51.488;6.668;2022-09-12T07:23:35;14.90;99.90
22071;DHT22;11200;51.488;6.668;2022-09-12T07:26:01;15.00;99.90
22071;DHT22;11200;51.488;6.668;2022-09-12T07:28:29;15.00;99.90
22071;DHT22;11200;51.488;6.668;2022-09-12T07:30:56;15.10;99.90
22071;DHT22;11200;51.488;6.668;2022-09-12T07:33:23;15.10;99.90
22071;DHT22;11200;51.488;6.668;2022-09-12T07:35:51;15.20;99.90
22071;DHT22;11200;51.488;6.668;2022-09-12T07:38:21;15.20;99.90
22071;DHT22;11200;51.488;6.668;2022-09-12T07:40:47;15.30;99.90
22071;DHT22;11200;51.488;6.668;2022-09-12T07:43:12;15.40;99.90
22071;DHT22;11200;51.488;6.668;2022-09-12T07:45:38;15.60;99.90
22071;DHT22;11200;51.488;6.668;2022-09-12T07:48:09;15.50;99.90
22071;DHT22;11200;51.488;6.668;2022-09-12T07:50:35;16.10;99.90
22071;DHT22;11200;51.488;6.668;2022-09-12T07:53:02;15.60;99.90
22071;DHT22;11200;51.488;6.668;2022-09-12T07:55:28;15.90;99.90
22071;DHT22;11200;51.488;6.668;2022-09-12T07:57:53;15.70;99.90
22071;DHT22;11200;51.488;6.668;2022-09-12T08:00:20;15.80;99.90
22071;DHT22;11200;51.488;6.668;2022-09-12T08:02:50;15.80;99.90
22071;DHT22;11200;51.488;6.668;2022-09-12T08:05:16;15.80;99.90
22071;DHT22;11200;51.488;6.668;2022-09-12T08:07:42;15.80;99.90
22071;DHT22;11200;51.488;6.668;2022-09-12T08:10:08;15.90;99.90
22071;DHT22;11200;51.488;6.668;2022-09-12T08:12:34;16.00;99.90
22071;DHT22;11200;51.488;6.668;2022-09-12T08:14:59;16.10;99.90
22071;DHT22;11200;51.488;6.668;2022-09-12T08:17:25;16.10;99.90
22071;DHT22;11200;51.488;6.668;2022-09-12T08:19:51;16.20;99.90
22071;DHT22;11200;51.488;6.668;2022-09-12T08:22:17;16.30;99.90
22071;DHT22;11200;51.488;6.668;2022-09-12T08:24:47;16.50;99.90
22071;DHT22;11200;51.488;6.668;2022-09-12T08:27:13;16.60;99.90
22071;DHT22;11200;51.488;6.668;2022-09-12T08:29:39;16.90;99.90
22071;DHT22;11200;51.488;6.668;2022-09-12T08:32:05;17.10;99.90
22071;DHT22;11200;51.488;6.668;2022-09-12T08:34:30;17.30;99.90
22071;DHT22;11200;51.488;6.668;2022-09-12T08:36:56;17.50;99.90
22071;DHT22;11200;51.488;6.668;2022-09-12T08:39:22;17.70;99.90
22071;DHT22;11200;51.488;6.668;2022-09-12T08:42:03;17.90;99.90
22071;DHT22;11200;51.488;6.668;2022-09-12T08:47:30;18.30;99.90
22071;DHT22;11200;51.488;6.668;2022-09-12T08:53:02;18.80;99.90
22071;DHT22;11200;51.488;6.668;2022-09-12T08:55:37;19.10;99.90
22071;DHT22;11200;51.488;6.668;2022-09-12T09:01:00;19.60;99.90
22071;DHT22;11200;51.488;6.668;2022-09-12T09:16:42;20.80;99.90
22071;DHT22;11200;51.488;6.668;2022-09-12T09:19:16;21.00;99.90
22071;DHT22;11200;51.488;6.668;2022-09-12T09:21:44;21.20;99.90
22071;DHT22;11200;51.488;6.668;2022-09-12T09:24:18;21.40;99.90
22071;DHT22;11200;51.488;6.668;2022-09-12T09:27:00;21.60;99.90
22071;DHT22;11200;51.488;6.668;2022-09-12T09:29:30;21.90;99.90
22071;DHT22;11200;51.488;6.668;2022-09-12T09:32:00;22.20;99.90
22071;DHT22;11200;51.488;6.668;2022-09-12T09:34:29;22.40;99.90
22071;DHT22;11200;51.488;6.668;2022-09-12T09:37:18;22.70;99.90
22071;DHT22;11200;51.488;6.668;2022-09-12T09:45:02;23.50;99.90
22071;DHT22;11200;51.488;6.668;2022-09-12T09:47:35;23.80;99.90
22071;DHT22;11200;51.488;6.668;2022-09-12T09:50:01;24.00;99.90
22071;DHT22;11200;51.488;6.668;2022-09-12T09:52:28;24.20;99.90
22071;DHT22;11200;51.488;6.668;2022-09-12T09:55:00;24.40;99.90
22071;DHT22;11200;51.488;6.668;2022-09-12T10:00:23;24.90;99.90
22071;DHT22;11200;51.488;6.668;2022-09-12T10:05:34;25.30;99.90
22071;DHT22;11200;51.488;6.668;2022-09-12T10:08:00;25.50;99.90
22071;DHT22;11200;51.488;6.668;2022-09-12T10:10:27;25.70;99.90
22071;DHT22;11200;51.488;6.668;2022-09-12T10:13:08;25.80;99.90
22071;DHT22;11200;51.488;6.668;2022-09-12T10:15:34;26.00;99.90
22071;DHT22;11200;51.488;6.668;2022-09-12T10:18:00;26.20;99.90
22071;DHT22;11200;51.488;6.668;2022-09-12T10:20:42;26.30;99.90
22071;DHT22;11200;51.488;6.668;2022-09-12T10:26:04;26.60;99.90
22071;DHT22;11200;51.488;6.668;2022-09-12T10:28:53;26.80;99.90
22071;DHT22;11200;51.488;6.668;2022-09-12T10:31:28;26.90;99.90
22071;DHT22;11200;51.488;6.668;2022-09-12T10:34:00;27.00;99.90
22071;DHT22;11200;51.488;6.668;2022-09-12T10:36:35;27.10;99.90
22071;DHT22;11200;51.488;6.668;2022-09-12T10:39:01;27.20;99.90
22071;DHT22;11200;51.488;6.668;2022-09-12T10:41:38;27.30;99.90
22071;DHT22;11200;51.488;6.668;2022-09-12T10:44:07;27.40;99.90
22071;DHT22;11200;51.488;6.668;2022-09-12T10:46:34;27.40;99.90
22071;DHT22;11200;51.488;6.668;2022-09-12T10:49:26;27.50;99.90
22071;DHT22;11200;51.488;6.668;2022-09-12T10:51:53;27.60;99.90
22071;DHT22;11200;51.488;6.668;2022-09-12T10:54:22;27.70;99.90
22071;DHT22;11200;51.488;6.668;2022-09-12T11:00:03;27.80;99.90
22071;DHT22;11200;51.488;6.668;2022-09-12T11:02:49;27.90;99.90
22071;DHT22;11200;51.488;6.668;2022-09-12T11:05:28;27.90;99.90
22071;DHT22;11200;51.488;6.668;2022-09-12T11:10:58;28.00;99.90
22071;DHT22;11200;51.488;6.668;2022-09-12T11:21:59;28.20;99.90
22071;DHT22;11200;51.488;6.668;2022-09-12T11:30:08;28.40;99.90
22071;DHT22;11200;51.488;6.668;2022-09-12T11:35:51;28.50;99.90
22071;DHT22;11200;51.488;6.668;2022-09-12T11:41:04;28.60;99.90
22071;DHT22;11200;51.488;6.668;2022-09-12T11:49:14;28.70;99.90
22071;DHT22;11200;51.488;6.668;2022-09-12T11:52:03;28.70;99.90
22071;DHT22;11200;51.488;6.668;2022-09-12T12:02:39;28.90;99.90
22071;DHT22;11200;51.488;6.668;2022-09-12T12:05:21;28.90;99.90
22071;DHT22;11200;51.488;6.668;2022-09-12T12:07:56;28.90;99.90
22071;DHT22;11200;51.488;6.668;2022-09-12T12:12:56;28.90;99.90
22071;DHT22;11200;51.488;6.668;2022-09-12T12:15:24;28.90;99.90
22071;DHT22;11200;51.488;6.668;2022-09-12T12:18:14;28.90;99.90
22071;DHT22;11200;51.488;6.668;2022-09-12T12:20:41;28.90;99.90
22071;DHT22;11200;51.488;6.668;2022-09-12T12:23:31;28.90;99.90
22071;DHT22;11200;51.488;6.668;2022-09-12T12:26:02;28.90;99.90
22071;DHT22;11200;51.488;6.668;2022-09-12T12:31:05;28.90;99.90
22071;DHT22;11200;51.488;6.668;2022-09-12T12:38:37;28.90;99.90
22071;DHT22;11200;51.488;6.668;2022-09-12T12:43:51;28.90;99.90
22071;DHT22;11200;51.488;6.668;2022-09-12T12:46:21;28.90;99.90
22071;DHT22;11200;51.488;6.668;2022-09-12T12:49:08;28.80;99.90
22071;DHT22;11200;51.488;6.668;2022-09-12T12:51:39;28.40;99.90
22071;DHT22;11200;51.488;6.668;2022-09-12T12:59:48;28.70;99.90
22071;DHT22;11200;51.488;6.668;2022-09-12T13:02:37;28.70;99.90
22071;DHT22;11200;51.488;6.668;2022-09-12T13:05:15;28.80;99.90
22071;DHT22;11200;51.488;6.668;2022-09-12T13:07:45;28.60;99.90
22071;DHT22;11200;51.488;6.668;2022-09-12T13:10:22;28.50;99.90
22071;DHT22;11200;51.488;6.668;2022-09-12T13:12:49;28.50;99.90
22071;DHT22;11200;51.488;6.668;2022-09-12T13:15:49;28.50;99.90
22071;DHT22;11200;51.488;6.668;2022-09-12T13:21:18;28.40;99.90
22071;DHT22;11200;51.488;6.668;2022-09-12T13:24:11;28.40;99.90
22071;DHT22;11200;51.488;6.668;2022-09-12T13:26:42;28.30;99.90
22071;DHT22;11200;51.488;6.668;2022-09-12T13:29:22;28.30;99.90
22071;DHT22;11200;51.488;6.668;2022-09-12T13:31:59;28.20;99.90
22071;DHT22;11200;51.488;6.668;2022-09-12T13:34:34;28.10;99.90
22071;DHT22;11200;51.488;6.668;2022-09-12T13:42:41;27.90;99.90
22071;DHT22;11200;51.488;6.668;2022-09-12T13:45:25;27.90;99.90
22071;DHT22;11200;51.488;6.668;2022-09-12T13:47:59;27.80;99.90
22071;DHT22;11200;51.488;6.668;2022-09-12T13:50:51;27.70;99.90
22071;DHT22;11200;51.488;6.668;2022-09-12T13:53:23;27.70;99.90
22071;DHT22;11200;51.488;6.668;2022-09-12T13:55:59;27.60;99.90
22071;DHT22;11200;51.488;6.668;2022-09-12T13:58:27;27.50;99.90
22071;DHT22;11200;51.488;6.668;2022-09-12T14:01:14;27.50;99.90
22071;DHT22;11200;51.488;6.668;2022-09-12T14:03:55;27.40;99.90
22071;DHT22;11200;51.488;6.668;2022-09-12T14:06:51;27.40;99.90
22071;DHT22;11200;51.488;6.668;2022-09-12T14:09:27;27.30;99.90
22071;DHT22;11200;51.488;6.668;2022-09-12T14:11:55;27.20;99.90
22071;DHT22;11200;51.488;6.668;2022-09-12T14:14:32;27.20;99.90
22071;DHT22;11200;51.488;6.668;2022-09-12T14:16:59;27.10;99.90
22071;DHT22;11200;51.488;6.668;2022-09-12T14:19:25;27.10;99.90
22071;DHT22;11200;51.488;6.668;2022-09-12T14:21:56;27.00;99.90
22071;DHT22;11200;51.488;6.668;2022-09-12T14:24:22;27.00;99.90
22071;DHT22;11200;51.488;6.668;2022-09-12T14:26:53;26.90;99.90
22071;DHT22;11200;51.488;6.668;2022-09-12T14:29:21;26.80;99.90
22071;DHT22;11200;51.488;6.668;2022-09-12T14:32:00;26.80;99.90
22071;DHT22;11200;51.488;6.668;2022-09-12T14:34:27;26.70;99.90
22071;DHT22;11200;51.488;6.668;2022-09-12T14:36:54;26.70;99.90
22071;DHT22;11200;51.488;6.668;2022-09-12T14:39:25;26.60;99.90
22071;DHT22;11200;51.488;6.668;2022-09-12T14:44:29;26.40;99.90
22071;DHT22;11200;51.488;6.668;2022-09-12T14:47:09;26.30;99.90
22071;DHT22;11200;51.488;6.668;2022-09-12T14:49:36;26.30;99.90
22071;DHT22;11200;51.488;6.668;2022-09-12T14:52:05;26.20;99.90
22071;DHT22;11200;51.488;6.668;2022-09-12T14:59:42;26.00;99.90
22071;DHT22;11200;51.488;6.668;2022-09-12T15:02:26;25.90;99.90
22071;DHT22;11200;51.488;6.668;2022-09-12T15:04:54;25.90;99.90
22071;DHT22;11200;51.488;6.668;2022-09-12T15:10:21;25.70;99.90
22071;DHT22;11200;51.488;6.668;2022-09-12T15:12:48;25.70;99.90
22071;DHT22;11200;51.488;6.668;2022-09-12T15:15:17;25.60;99.90
22071;DHT22;11200;51.488;6.668;2022-09-12T15:17:43;25.60;99.90
22071;DHT22;11200;51.488;6.668;2022-09-12T15:20:09;25.50;99.90
22071;DHT22;11200;51.488;6.668;2022-09-12T15:22:36;25.50;99.90
22071;DHT22;11200;51.488;6.668;2022-09-12T15:25:03;25.40;99.90
22071;DHT22;11200;51.488;6.668;2022-09-12T15:27:29;25.30;99.90
22071;DHT22;11200;51.488;6.668;2022-09-12T15:29:54;25.30;99.90
22071;DHT22;11200;51.488;6.668;2022-09-12T15:32:28;25.20;99.90
22071;DHT22;11200;51.488;6.668;2022-09-12T15:34:54;25.20;99.90
22071;DHT22;11200;51.488;6.668;2022-09-12T15:37:21;25.10;99.90
22071;DHT22;11200;51.488;6.668;2022-09-12T15:39:48;25.10;99.90
22071;DHT22;11200;51.488;6.668;2022-09-12T15:42:15;25.00;99.90
22071;DHT22;11200;51.488;6.668;2022-09-12T15:44:41;24.90;99.90
22071;DHT22;11200;51.488;6.668;2022-09-12T15:47:10;24.90;99.90
22071;DHT22;11200;51.488;6.668;2022-09-12T15:49:36;24.90;99.90
22071;DHT22;11200;51.488;6.668;2022-09-12T15:52:02;24.80;99.90
22071;DHT22;11200;51.488;6.668;2022-09-12T15:54:27;24.80;99.90
22071;DHT22;11200;51.488;6.668;2022-09-12T15:56:53;24.70;99.90
22071;DHT22;11200;51.488;6.668;2022-09-12T15:59:19;24.70;99.90
22071;DHT22;11200;51.488;6.668;2022-09-12T16:01:45;24.60;99.90
22071;DHT22;11200;51.488;6.668;2022-09-12T16:04:23;24.60;99.90
22071;DHT22;11200;51.488;6.668;2022-09-12T16:06:52;24.50;99.90
22071;DHT22;11200;51.488;6.668;2022-09-12T16:09:19;24.40;99.90
22071;DHT22;11200;51.488;6.668;2022-09-12T16:11:45;24.40;99.90
22071;DHT22;11200;51.488;6.668;2022-09-12T16:14:15;24.40;99.90
22071;DHT22;11200;51.488;6.668;2022-09-12T16:16:41;24.30;99.90
22071;DHT22;11200;51.488;6.668;2022-09-12T16:19:08;24.30;99.90
22071;DHT22;11200;51.488;6.668;2022-09-12T16:21:35;24.20;99.90
22071;DHT22;11200;51.488;6.668;2022-09-12T16:24:00;24.20;99.90
22071;DHT22;11200;51.488;6.668;2022-09-12T16:26:26;24.10;99.90
22071;DHT22;11200;51.488;6.668;2022-09-12T16:28:59;24.10;99.90
22071;DHT22;11200;51.488;6.668;2022-09-12T16:31:25;24.00;99.90
22071;DHT22;11200;51.488;6.668;2022-09-12T16:33:51;24.00;99.90
22071;DHT22;11200;51.488;6.668;2022-09-12T16:36:18;24.00;99.90
22071;DHT22;11200;51.488;6.668;2022-09-12T16:38:49;23.90;99.90
22071;DHT22;11200;51.488;6.668;2022-09-12T16:41:16;23.90;99.90
22071;DHT22;11200;51.488;6.668;2022-09-12T16:43:43;23.90;99.90
22071;DHT22;11200;51.488;6.668;2022-09-12T16:48:40;23.80;99.90
22071;DHT22;11200;51.488;6.668;2022-09-12T16:51:06;23.80;99.90
22071;DHT22;11200;51.488;6.668;2022-09-12T16:53:36;23.70;99.90
22071;DHT22;11200;51.488;6.668;2022-09-12T16:56:03;23.70;99.90
22071;DHT22;11200;51.488;6.668;2022-09-12T16:58:34;23.70;99.90
22071;DHT22;11200;51.488;6.668;2022-09-12T17:01:05;23.60;99.90
22071;DHT22;11200;51.488;6.668;2022-09-12T17:03:32;23.60;99.90
22071;DHT22;11200;51.488;6.668;2022-09-12T17:06:25;23.50;99.90
22071;DHT22;11200;51.488;6.668;2022-09-12T17:08:54;23.50;99.90
22071;DHT22;11200;51.488;6.668;2022-09-12T17:11:28;23.40;99.90
22071;DHT22;11200;51.488;6.668;2022-09-12T17:13:58;23.40;99.90
22071;DHT22;11200;51.488;6.668;2022-09-12T17:16:27;23.40;99.90
22071;DHT22;11200;51.488;6.668;2022-09-12T17:18:53;23.30;99.90
22071;DHT22;11200;51.488;6.668;2022-09-12T17:21:19;23.20;99.90
22071;DHT22;11200;51.488;6.668;2022-09-12T17:23:45;23.20;99.90
22071;DHT22;11200;51.488;6.668;2022-09-12T17:26:11;23.20;99.90
22071;DHT22;11200;51.488;6.668;2022-09-12T17:28:38;23.10;99.90
22071;DHT22;11200;51.488;6.668;2022-09-12T17:31:06;23.10;99.90
22071;DHT22;11200;51.488;6.668;2022-09-12T17:33:32;23.10;99.90
22071;DHT22;11200;51.488;6.668;2022-09-12T17:36:03;23.00;99.90
22071;DHT22;11200;51.488;6.668;2022-09-12T17:38:36;22.90;99.90
22071;DHT22;11200;51.488;6.668;2022-09-12T17:41:16;22.60;99.90
22071;DHT22;11200;51.488;6.668;2022-09-12T17:43:43;22.80;99.90
22071;DHT22;11200;51.488;6.668;2022-09-12T17:46:10;22.80;99.90
22071;DHT22;11200;51.488;6.668;2022-09-12T17:48:36;22.70;99.90
22071;DHT22;11200;51.488;6.668;2022-09-12T17:51:09;22.70;99.90
22071;DHT22;11200;51.488;6.668;2022-09-12T17:53:35;22.60;99.90
22071;DHT22;11200;51.488;6.668;2022-09-12T17:56:03;22.60;99.90
22071;DHT22;11200;51.488;6.668;2022-09-12T17:58:29;22.50;99.90
22071;DHT22;11200;51.488;6.668;2022-09-12T18:01:03;22.40;99.90
22071;DHT22;11200;51.488;6.668;2022-09-12T18:03:55;22.40;99.90
22071;DHT22;11200;51.488;6.668;2022-09-12T18:06:22;22.30;99.90
22071;DHT22;11200;51.488;6.668;2022-09-12T18:08:48;22.20;99.90
22071;DHT22;11200;51.488;6.668;2022-09-12T18:11:14;22.10;99.90
22071;DHT22;11200;51.488;6.668;2022-09-12T18:13:39;22.10;99.90
22071;DHT22;11200;51.488;6.668;2022-09-12T18:16:10;22.10;99.90
22071;DHT22;11200;51.488;6.668;2022-09-12T18:18:42;22.00;99.90
22071;DHT22;11200;51.488;6.668;2022-09-12T18:21:11;21.90;99.90
22071;DHT22;11200;51.488;6.668;2022-09-12T18:23:36;21.80;99.90
22071;DHT22;11200;51.488;6.668;2022-09-12T18:26:07;21.70;99.90
22071;DHT22;11200;51.488;6.668;2022-09-12T18:28:35;21.70;99.90
22071;DHT22;11200;51.488;6.668;2022-09-12T18:31:01;21.70;99.90
22071;DHT22;11200;51.488;6.668;2022-09-12T18:33:27;21.70;99.90